Time;durP1;ratioP1;P1;durP2;ratioP2;P2;SDS_P1;SDS_P2;PMS_P1;PMS_P2;Temp;Humidity;BMP_temperature;BMP_pressure;BME280_temperature;BME280_humidity;BME280_pressure;Samples;Min_cycle;Max_cycle;Signal;HPM_P1;HPM_P2
2021/07/24 00:00:57;;;;;;;12.65;8.50;;;;;;;17.73;66.67;99512.34;5132316;27;20356;-68
2021/07/24 00:03:28;;;;;;;10.48;7.80;;;;;;;17.46;67.47;99511.44;5132296;27;20043;-71
2021/07/24 00:05:57;;;;;;;12.32;8.32;;;;;;;17.19;68.20;99513.13;5132067;27;20092;-69
2021/07/24 00:08:26;;;;;;;11.50;8.20;;;;;;;16.96;69.01;99507.81;5132014;27;20044;-70
2021/07/24 00:10:55;;;;;;;13.00;8.53;;;;;;;16.84;69.52;99515.91;5131972;27;20066;-70
2021/07/24 00:13:24;;;;;;;11.23;8.25;;;;;;;16.71;70.10;99511.97;5131834;27;20051;-70
2021/07/24 00:15:53;;;;;;;13.57;8.33;;;;;;;16.52;70.76;99510.78;5132101;27;20040;-70
2021/07/24 00:18:23;;;;;;;13.10;8.60;;;;;;;16.40;70.90;99505.94;5132061;27;20032;-70
2021/07/24 00:20:52;;;;;;;12.65;8.13;;;;;;;16.34;71.86;99506.94;5130367;28;20041;-69
2021/07/24 00:23:21;;;;;;;13.10;9.10;;;;;;;16.41;71.86;99510.22;5132260;27;20059;-68
2021/07/24 00:25:50;;;;;;;14.03;9.10;;;;;;;16.55;71.95;99514.16;5131610;27;20043;-69
2021/07/24 00:28:19;;;;;;;13.90;9.18;;;;;;;16.68;71.99;99510.31;5131870;27;20321;-70
2021/07/24 00:30:48;;;;;;;13.00;8.50;;;;;;;16.87;71.61;99510.63;5131459;27;20039;-69
2021/07/24 00:33:31;;;;;;;14.32;9.13;;;;;;;17.10;70.83;99512.56;5131779;27;20062;-71
2021/07/24 00:36:00;;;;;;;11.45;8.15;;;;;;;17.07;70.32;99507.47;5131730;27;20046;-69
2021/07/24 00:38:29;;;;;;;11.23;8.60;;;;;;;17.04;70.59;99503.25;5131926;27;20066;-70
2021/07/24 00:41:14;;;;;;;12.97;8.93;;;;;;;17.10;70.63;99505.66;5131156;27;20031;-67
2021/07/24 00:43:48;;;;;;;12.75;8.93;;;;;;;17.11;70.46;99504.75;5131299;27;20291;-70
2021/07/24 00:46:19;;;;;;;13.82;8.60;;;;;;;17.07;70.40;99504.91;5130367;28;20092;-68
2021/07/24 00:48:51;;;;;;;12.00;8.35;;;;;;;16.88;70.32;99496.88;5130020;28;20416;-69
2021/07/24 00:51:29;;;;;;;12.88;8.30;;;;;;;16.82;70.90;99497.03;5131433;27;20135;-68
2021/07/24 00:54:01;;;;;;;13.25;8.32;;;;;;;16.60;71.33;99501.94;5131443;27;20144;-69
2021/07/24 00:56:31;;;;;;;13.85;8.52;;;;;;;16.47;71.75;99499.75;5131379;27;20044;-69
2021/07/24 00:59:01;;;;;;;14.13;8.73;;;;;;;16.49;72.04;99492.81;5130875;27;20055;-70
2021/07/24 01:01:31;;;;;;;14.57;8.68;;;;;;;16.47;71.97;99495.44;5130969;27;20109;-71
2021/07/24 01:04:02;;;;;;;13.85;8.80;;;;;;;16.38;72.49;99489.69;5130006;28;20052;-69
2021/07/24 01:06:32;;;;;;;12.85;8.85;;;;;;;16.42;72.52;99494.72;5129711;28;20043;-68
2021/07/24 01:09:02;;;;;;;13.65;9.23;;;;;;;16.53;72.93;99497.03;5130819;27;20051;-70
2021/07/24 01:11:33;;;;;;;13.05;7.95;;;;;;;16.66;72.32;99490.63;5120374;28;20082;-69
2021/07/24 01:14:02;;;;;;;;;;;;;;;16.79;72.05;99484.25;5116259;28;20043;-69
2021/07/24 01:16:31;;;;;;;11.95;8.27;;;;;;;16.82;71.69;99486.72;5116956;28;19920;-68
2021/07/24 01:19:16;;;;;;;12.32;8.82;;;;;;;16.87;71.60;99487.44;5116017;28;20066;-68
2021/07/24 01:21:47;;;;;;;12.68;8.70;;;;;;;16.90;71.08;99489.94;5116825;27;20059;-66
2021/07/24 01:24:17;;;;;;;14.52;9.38;;;;;;;16.85;71.24;99490.94;5115986;28;20040;-69
2021/07/24 01:26:47;;;;;;;12.00;8.43;;;;;;;16.93;70.97;99494.16;5116855;28;20066;-69
2021/07/24 01:29:21;;;;;;;15.27;9.07;;;;;;;16.62;71.21;99496.78;5117041;28;20048;-69
2021/07/24 01:31:54;;;;;;;13.68;8.80;;;;;;;16.22;71.83;99488.41;5116928;28;20096;-69
2021/07/24 01:34:25;;;;;;;13.43;9.23;;;;;;;15.90;72.26;99497.81;5116612;28;20051;-68
2021/07/24 01:36:58;;;;;;;13.65;8.95;;;;;;;15.71;73.48;99498.31;5115759;28;20039;-72
2021/07/24 01:39:28;;;;;;;13.15;9.18;;;;;;;15.62;74.31;99496.78;5116795;28;20035;-68
2021/07/24 01:41:57;;;;;;;14.13;9.05;;;;;;;15.50;74.38;99491.94;5115791;28;20043;-69
2021/07/24 01:44:30;;;;;;;14.15;9.57;;;;;;;15.46;75.16;99495.47;5116491;28;20044;-70
2021/07/24 01:46:59;;;;;;;14.68;9.60;;;;;;;15.57;75.08;99492.66;5115485;28;20434;-69
2021/07/24 01:55:05;;;;;;;14.85;9.07;;;;;;;15.50;75.89;99491.13;5116536;28;20385;-70
2021/07/24 01:57:45;;;;;;;16.35;9.50;;;;;;;15.21;75.84;99494.31;5114987;28;20050;-69
2021/07/24 02:00:16;;;;;;;16.98;9.70;;;;;;;15.11;76.63;99497.97;5116011;28;20127;-70
2021/07/24 02:03:09;;;;;;;14.60;10.18;;;;;;;15.22;76.99;99490.84;5116214;28;20039;-68
2021/07/24 02:05:50;;;;;;;13.75;9.88;;;;;;;15.30;76.66;99488.97;5115987;28;20047;-68
2021/07/24 02:08:26;;;;;;;14.20;9.73;;;;;;;15.22;76.59;99490.84;5114771;28;20071;-68
2021/07/24 02:10:56;;;;;;;13.70;9.48;;;;;;;15.21;76.59;99489.19;5114749;28;20067;-69
2021/07/24 02:13:26;;;;;;;15.32;10.38;;;;;;;14.99;76.86;99487.94;5115804;28;20044;-70
2021/07/24 02:15:57;;;;;;;13.40;9.77;;;;;;;14.90;77.53;99488.16;5115856;28;20122;-67
2021/07/24 02:18:29;;;;;;;14.00;9.60;;;;;;;14.81;77.78;99485.75;5131749;27;20044;-68
2021/07/24 02:21:15;;;;;;;14.55;9.80;;;;;;;14.94;77.82;99479.50;5114747;28;20043;-68
2021/07/24 02:23:46;;;;;;;14.82;9.80;;;;;;;14.77;77.57;99488.41;5113444;28;20054;-69
2021/07/24 02:26:15;;;;;;;17.75;10.23;;;;;;;14.78;78.65;99479.81;5115948;28;20078;-68
2021/07/24 02:28:46;;;;;;;14.85;9.63;;;;;;;14.89;78.63;99479.59;5115582;28;20056;-70
2021/07/24 02:31:15;;;;;;;15.25;10.18;;;;;;;14.94;78.47;99482.06;5115559;28;20032;-67
2021/07/24 02:33:45;;;;;;;16.65;9.63;;;;;;;14.92;78.35;99476.13;5114237;28;20039;-67
2021/07/24 02:36:20;;;;;;;13.75;9.77;;;;;;;14.90;78.46;99485.59;5116041;28;20092;-69
2021/07/24 02:38:50;;;;;;;10.07;7.43;;;;;;;14.84;78.42;99478.00;5115386;28;20501;-68
2021/07/24 02:41:20;;;;;;;12.55;9.32;;;;;;;14.80;78.63;99487.50;5115589;28;20172;-69
2021/07/24 02:43:49;;;;;;;16.30;9.63;;;;;;;14.69;78.33;99485.16;5115593;28;20425;-69
2021/07/24 02:46:19;;;;;;;14.57;9.45;;;;;;;14.68;78.45;99480.88;5114370;28;20481;-69
2021/07/24 02:48:52;;;;;;;15.00;10.00;;;;;;;14.63;78.98;99479.28;5115828;28;20059;-68
2021/07/24 02:51:32;;;;;;;13.63;9.20;;;;;;;14.59;79.20;99483.63;5115436;28;20042;-69
2021/07/24 02:54:04;;;;;;;15.77;10.27;;;;;;;14.85;79.48;99485.69;5096890;28;20071;-71
2021/07/24 02:56:36;;;;;;;14.13;9.63;;;;;;;14.99;78.90;99485.38;5114145;28;20104;-70
2021/07/24 02:59:06;;;;;;;13.57;9.73;;;;;;;15.06;78.83;99484.38;5115035;28;20532;-68
2021/07/24 03:01:35;;;;;;;14.85;9.40;;;;;;;15.04;78.10;99491.28;5114879;28;20040;-68
2021/07/24 03:04:05;;;;;;;13.23;8.82;;;;;;;15.04;78.21;99486.13;5115274;28;20122;-68
2021/07/24 03:06:34;;;;;;;15.23;9.70;;;;;;;15.04;78.12;99486.13;5115127;28;20123;-68
2021/07/24 03:09:06;;;;;;;11.88;7.85;;;;;;;15.15;78.40;99490.16;5114737;28;20388;-69
2021/07/24 03:11:36;;;;;;;13.23;9.40;;;;;;;15.16;77.80;99491.84;5115094;28;20032;-68
2021/07/24 03:14:05;;;;;;;14.70;9.67;;;;;;;15.08;77.79;99482.59;5114915;28;20036;-68
2021/07/24 03:16:35;;;;;;;13.88;9.55;;;;;;;15.06;78.31;99489.50;5114980;28;20047;-69
2021/07/24 03:19:04;;;;;;;;;;;;;;;15.05;78.01;99482.66;5115108;28;20050;-69
2021/07/24 03:21:33;;;;;;;13.98;9.50;;;;;;;14.95;78.15;99486.34;5114496;28;20022;-69
2021/07/24 03:24:04;;;;;;;13.82;9.68;;;;;;;14.81;77.97;99488.31;5114446;28;20493;-68
2021/07/24 03:26:33;;;;;;;14.10;9.80;;;;;;;14.76;78.14;99491.84;5114829;28;20473;-68
2021/07/24 03:29:02;;;;;;;10.60;7.60;;;;;;;14.85;78.69;99487.41;5114739;28;20465;-70
2021/07/24 03:31:31;;;;;;;16.13;10.80;;;;;;;14.89;78.28;99491.59;5114740;28;20040;-68
2021/07/24 03:34:00;;;;;;;10.68;7.75;;;;;;;14.88;78.37;99483.03;5114190;28;20752;-68
2021/07/24 03:36:29;;;;;;;13.38;9.75;;;;;;;14.91;78.75;99490.69;5114378;28;20059;-70
2021/07/24 03:38:58;;;;;;;14.40;9.93;;;;;;;14.86;78.28;99486.50;5114899;28;20127;-69
2021/07/24 03:41:28;;;;;;;13.57;10.07;;;;;;;14.78;78.83;99484.94;5114201;28;20035;-70
2021/07/24 03:43:58;;;;;;;16.40;10.85;;;;;;;14.87;78.86;99489.06;5114249;28;20047;-68
2021/07/24 03:46:27;;;;;;;15.00;10.35;;;;;;;14.98;79.18;99481.09;5114137;28;20489;-70
2021/07/24 03:48:56;;;;;;;14.32;9.98;;;;;;;15.12;78.71;99489.34;5114492;28;20042;-70
2021/07/24 03:51:25;;;;;;;13.03;9.60;;;;;;;15.35;78.65;99482.00;5114447;28;20070;-68
2021/07/24 03:53:53;;;;;;;14.77;10.17;;;;;;;15.57;78.18;99493.50;5114410;28;20093;-70
2021/07/24 03:56:23;;;;;;;14.48;9.65;;;;;;;15.78;77.51;99490.41;5114172;28;20362;-69
2021/07/24 03:58:53;;;;;;;17.08;9.90;;;;;;;15.94;77.36;99485.69;5114120;28;20094;-69
2021/07/24 04:01:26;;;;;;;15.73;10.10;;;;;;;16.00;76.87;99488.97;5113982;28;20043;-70
2021/07/24 04:03:55;;;;;;;13.35;9.43;;;;;;;16.07;76.08;99490.53;5114355;28;20441;-70
2021/07/24 04:06:26;;;;;;;15.47;9.97;;;;;;;16.16;76.33;99488.56;5114102;28;20122;-70
2021/07/24 04:08:57;;;;;;;14.20;9.30;;;;;;;16.27;75.61;99481.41;5114014;28;20072;-67
2021/07/24 04:11:27;;;;;;;14.50;9.23;;;;;;;16.14;75.85;99485.19;5114328;28;20051;-69
2021/07/24 04:13:59;;;;;;;13.77;9.43;;;;;;;16.14;75.88;99480.03;5113938;28;20051;-69
2021/07/24 04:16:28;;;;;;;13.05;9.15;;;;;;;16.05;75.63;99487.09;5114130;28;20055;-68
2021/07/24 04:18:59;;;;;;;13.90;9.55;;;;;;;16.07;76.34;99489.66;5113867;28;20524;-70
2021/07/24 04:21:28;;;;;;;13.60;9.40;;;;;;;16.20;76.46;99485.00;5112572;28;20492;-68
2021/07/24 04:23:57;;;;;;;12.05;9.15;;;;;;;16.21;76.42;99486.72;5113882;28;20068;-69
2021/07/24 04:26:27;;;;;;;14.37;9.93;;;;;;;16.31;76.22;99477.88;5113954;28;20085;-69
2021/07/24 04:28:58;;;;;;;15.55;9.57;;;;;;;16.53;75.95;99484.16;5114115;28;20035;-71
2021/07/24 04:31:27;;;;;;;13.05;9.40;;;;;;;16.72;75.90;99485.31;5113795;28;20044;-69
2021/07/24 04:33:55;;;;;;;12.48;9.20;;;;;;;16.90;75.27;99481.34;5114079;28;20549;-70
2021/07/24 04:36:25;;;;;;;13.88;9.50;;;;;;;17.04;75.10;99487.78;5113887;28;20035;-69
2021/07/24 04:38:54;;;;;;;15.07;10.83;;;;;;;17.18;74.58;99480.47;5113683;28;20074;-70
2021/07/24 04:41:23;;;;;;;13.35;9.73;;;;;;;17.31;74.64;99484.38;5113944;28;20032;-71
2021/07/24 04:43:51;;;;;;;11.10;7.47;;;;;;;17.56;73.87;99486.22;5112557;28;20051;-69
2021/07/24 04:46:22;;;;;;;16.77;9.47;;;;;;;17.75;73.36;99487.31;5115384;28;20583;-71
2021/07/24 04:48:51;;;;;;;14.27;9.45;;;;;;;17.90;72.62;99481.66;5118126;28;20816;-69
2021/07/24 04:51:20;;;;;;;14.77;10.37;;;;;;;18.04;72.23;99489.78;5117432;28;20097;-70
2021/07/24 04:53:50;;;;;;;15.57;10.25;;;;;;;18.08;71.79;99486.19;5117942;28;20047;-70
2021/07/24 04:56:18;;;;;;;16.20;10.32;;;;;;;18.17;71.42;99483.28;5117655;28;20126;-72
2021/07/24 04:58:47;;;;;;;14.43;10.00;;;;;;;18.22;71.00;99494.28;5117668;27;20035;-70
2021/07/24 05:01:21;;;;;;;15.53;10.73;;;;;;;18.33;71.02;99487.00;5117573;28;20393;-72
2021/07/24 05:03:50;;;;;;;14.30;10.27;;;;;;;18.43;70.64;99488.34;5117613;28;20286;-72
2021/07/24 05:06:19;;;;;;;17.77;9.70;;;;;;;18.55;70.45;99487.97;5117137;28;20032;-71
2021/07/24 05:08:48;;;;;;;12.43;8.27;;;;;;;18.74;70.30;99491.56;5117103;28;20119;-69
2021/07/24 05:11:17;;;;;;;16.03;10.53;;;;;;;18.85;69.93;99485.16;5117385;28;20333;-72
2021/07/24 05:13:46;;;;;;;13.27;9.60;;;;;;;19.03;69.63;99479.28;5117640;28;20477;-70
2021/07/24 05:16:16;;;;;;;14.93;10.02;;;;;;;19.19;69.21;99482.97;5117603;28;20036;-70
2021/07/24 05:18:47;;;;;;;13.93;10.25;;;;;;;19.33;68.87;99489.31;5116953;28;20529;-71
2021/07/24 05:21:17;;;;;;;13.68;9.25;;;;;;;19.37;68.46;99488.31;5116921;28;20392;-69
2021/07/24 05:23:46;;;;;;;12.57;8.90;;;;;;;19.49;68.25;99492.13;5117115;28;20052;-68
2021/07/24 05:26:15;;;;;;;17.40;9.90;;;;;;;19.61;68.05;99489.06;5117380;28;20032;-68
2021/07/24 05:28:44;;;;;;;13.43;8.57;;;;;;;19.81;67.48;99491.69;5116700;28;20035;-69
2021/07/24 05:31:17;;;;;;;13.57;9.57;;;;;;;19.93;66.64;99495.53;5116962;28;20047;-73
2021/07/24 05:33:47;;;;;;;14.60;9.25;;;;;;;19.94;66.60;99495.44;5116659;28;20062;-69
2021/07/24 05:36:16;;;;;;;12.77;8.95;;;;;;;20.07;66.42;99493.19;5116598;28;20054;-69
2021/07/24 05:38:45;;;;;;;14.47;9.47;;;;;;;20.22;66.01;99491.69;5116492;28;20453;-69
2021/07/24 05:41:14;;;;;;;14.07;8.87;;;;;;;20.32;65.59;99495.63;5116306;28;20064;-73
2021/07/24 05:43:43;;;;;;;13.07;8.97;;;;;;;20.46;65.76;99495.84;5116347;28;20048;-74
2021/07/24 05:46:12;;;;;;;19.55;9.30;;;;;;;20.67;65.49;99489.72;5116518;28;20280;-74
2021/07/24 05:48:41;;;;;;;14.00;8.73;;;;;;;20.86;65.15;99490.56;5116300;28;20096;-73
2021/07/24 05:51:12;;;;;;;12.25;8.20;;;;;;;21.02;64.66;99501.91;5114861;28;20047;-68
2021/07/24 05:53:41;;;;;;;14.85;8.43;;;;;;;21.14;64.02;99501.38;5116297;28;20085;-71
2021/07/24 05:56:10;;;;;;;15.10;8.38;;;;;;;21.24;63.60;99501.78;5116201;28;20069;-73
2021/07/24 05:58:39;;;;;;;12.38;9.00;;;;;;;21.35;63.58;99515.94;5115616;28;20040;-68
2021/07/24 06:01:11;;;;;;;12.02;8.48;;;;;;;21.45;63.81;99507.75;5116057;28;20039;-69
2021/07/24 06:03:41;;;;;;;11.43;7.15;;;;;;;21.56;62.90;99505.47;5115835;28;20043;-72
2021/07/24 06:06:13;;;;;;;12.13;8.55;;;;;;;21.68;62.78;99512.66;5116259;28;20048;-72
2021/07/24 06:08:42;;;;;;;14.23;9.05;;;;;;;21.76;61.89;99511.38;5115907;27;20146;-70
2021/07/24 06:11:11;;;;;;;12.47;8.73;;;;;;;21.84;61.39;99513.59;5115872;28;20063;-72
2021/07/24 06:13:39;;;;;;;13.07;8.23;;;;;;;21.87;61.50;99516.09;5115644;28;20091;-72
2021/07/24 06:16:09;;;;;;;15.23;9.40;;;;;;;21.91;61.11;99509.81;5115757;28;20035;-67
2021/07/24 06:18:39;;;;;;;13.07;7.95;;;;;;;21.93;61.44;99515.81;5115665;28;20057;-71
2021/07/24 06:21:13;;;;;;;14.65;8.55;;;;;;;22.10;61.30;99514.97;5114241;28;20071;-70
2021/07/24 06:23:45;;;;;;;13.05;8.88;;;;;;;22.23;60.74;99514.25;5115543;28;20153;-72
2021/07/24 06:26:14;;;;;;;11.85;8.75;;;;;;;22.30;60.38;99507.81;5115457;28;20051;-71
2021/07/24 06:28:43;;;;;;;12.50;9.30;;;;;;;22.34;59.94;99514.53;5115604;28;20047;-70
2021/07/24 06:31:12;;;;;;;15.25;9.35;;;;;;;22.22;60.38;99504.75;5115399;28;20043;-71
2021/07/24 06:33:41;;;;;;;13.23;7.80;;;;;;;22.40;59.96;99513.38;5115822;28;20038;-67
2021/07/24 06:36:10;;;;;;;13.38;8.32;;;;;;;22.54;59.51;99506.56;5115300;28;20042;-67
2021/07/24 06:38:39;;;;;;;8.32;6.57;;;;;;;22.58;59.39;99497.66;5115837;28;20042;-69
2021/07/24 06:41:09;;;;;;;12.48;9.18;;;;;;;22.75;59.22;99493.38;5115592;28;20126;-73
2021/07/24 06:43:40;;;;;;;13.88;8.40;;;;;;;22.87;59.06;99496.13;5115211;28;20123;-73
2021/07/24 06:46:10;;;;;;;12.98;8.05;;;;;;;22.97;58.79;99488.66;5115117;28;20036;-73
2021/07/24 06:48:39;;;;;;;11.00;9.10;;;;;;;23.10;57.94;99489.69;5115457;28;20039;-72
2021/07/24 06:51:09;;;;;;;13.02;8.18;;;;;;;23.21;57.92;99492.53;5115448;28;20063;-72
2021/07/24 06:53:38;;;;;;;12.77;8.57;;;;;;;23.17;57.94;99491.03;5115001;28;20055;-69
2021/07/24 06:56:07;;;;;;;12.30;8.25;;;;;;;23.31;57.33;99491.09;5114986;28;20580;-70
2021/07/24 06:58:37;;;;;;;11.45;8.13;;;;;;;23.45;57.17;99488.59;5114753;27;20035;-72
2021/07/24 07:01:07;;;;;;;12.75;8.32;;;;;;;23.52;57.07;99486.47;5113649;28;20048;-69
2021/07/24 07:03:37;;;;;;;10.73;7.90;;;;;;;23.70;56.28;99486.31;5114822;28;20047;-68
2021/07/24 07:06:07;;;;;;;10.57;7.45;;;;;;;23.73;55.73;99465.25;5114784;27;20047;-73
2021/07/24 07:08:36;;;;;;;10.30;7.00;;;;;;;23.91;55.77;99484.22;5114520;28;20123;-69
2021/07/24 07:11:05;;;;;;;;;;;;;;;23.74;55.83;99473.91;5113948;28;20051;-71
2021/07/24 07:13:35;;;;;;;11.70;7.45;;;;;;;23.92;55.67;99476.28;5114618;28;20379;-70
2021/07/24 07:16:06;;;;;;;12.13;7.28;;;;;;;24.17;54.99;99472.25;5114646;28;20040;-72
2021/07/24 07:18:36;;;;;;;11.55;7.35;;;;;;;24.30;54.51;99460.19;5114592;28;20043;-69
2021/07/24 07:21:06;;;;;;;10.52;7.25;;;;;;;24.48;53.92;99469.50;5114619;28;20036;-68
2021/07/24 07:23:34;;;;;;;;;;;;;;;24.65;53.62;99466.69;5114837;28;20089;-68
2021/07/24 07:26:03;;;;;;;11.02;6.72;;;;;;;24.74;52.53;99458.28;5114359;28;20305;-70
2021/07/24 07:28:32;;;;;;;10.15;7.32;;;;;;;24.74;52.14;99457.47;5114452;28;20070;-73
2021/07/24 07:31:01;;;;;;;9.93;7.20;;;;;;;24.85;52.61;99455.91;5114630;28;20040;-74
2021/07/24 07:33:32;;;;;;;12.02;8.10;;;;;;;25.02;52.16;99450.44;5114386;28;20109;-70
2021/07/24 07:36:01;;;;;;;13.48;7.53;;;;;;;25.14;51.41;99449.69;5114496;28;20043;-70
2021/07/24 07:38:30;;;;;;;12.85;6.95;;;;;;;25.18;50.61;99451.13;5114329;28;20093;-70
2021/07/24 07:40:59;;;;;;;8.50;6.65;;;;;;;25.30;49.54;99463.41;5114190;28;20078;-73
2021/07/24 07:43:28;;;;;;;9.40;6.53;;;;;;;25.44;49.28;99461.66;5114125;28;20122;-73
2021/07/24 07:45:57;;;;;;;9.20;6.88;;;;;;;25.03;49.29;99452.09;5114416;28;20051;-71
2021/07/24 07:48:25;;;;;;;10.18;6.68;;;;;;;25.15;49.18;99451.34;5114085;28;20043;-68
2021/07/24 07:50:58;;;;;;;9.93;7.13;;;;;;;25.43;48.64;99450.41;5114114;28;20397;-68
2021/07/24 07:53:27;;;;;;;9.50;6.68;;;;;;;25.64;49.19;99453.41;5114069;28;20048;-71
2021/07/24 07:55:56;;;;;;;10.73;7.00;;;;;;;25.93;48.18;99454.94;5114046;28;20490;-71
2021/07/24 07:58:25;;;;;;;9.57;6.55;;;;;;;26.02;48.38;99451.69;5113956;28;20092;-74
2021/07/24 08:00:55;;;;;;;11.95;8.02;;;;;;;25.89;48.22;99453.47;5112874;28;20055;-68
2021/07/24 08:03:25;;;;;;;10.20;6.60;;;;;;;26.20;47.57;99444.41;5105765;28;20057;-70
2021/07/24 08:05:55;;;;;;;10.32;7.28;;;;;;;26.42;46.36;99437.56;5113635;28;20120;-70
2021/07/24 08:08:26;;;;;;;13.90;7.25;;;;;;;26.50;46.11;99440.50;5113966;28;20051;-69
2021/07/24 08:10:55;;;;;;;9.90;7.28;;;;;;;26.56;46.24;99440.06;5111195;28;20040;-68
2021/07/24 08:13:25;;;;;;;9.07;6.70;;;;;;;26.19;45.62;99451.41;5110247;28;20079;-69
2021/07/24 08:15:54;;;;;;;9.70;6.55;;;;;;;26.35;45.97;99441.56;5113097;28;20047;-70
2021/07/24 08:18:23;;;;;;;;;;;;;;;26.37;46.13;99444.09;5114161;28;20051;-71
2021/07/24 08:20:53;;;;;;;9.13;6.53;;;;;;;26.55;45.60;99438.41;5110560;28;20681;-72
2021/07/24 08:23:23;;;;;;;10.98;7.03;;;;;;;26.91;46.05;99440.25;5112788;28;20074;-71
2021/07/24 08:25:53;;;;;;;12.80;6.75;;;;;;;27.08;45.83;99444.28;5096933;28;20052;-69
2021/07/24 08:28:28;;;;;;;9.75;6.15;;;;;;;27.27;44.51;99436.75;5097364;28;20585;-70
2021/07/24 08:30:59;;;;;;;10.73;6.95;;;;;;;27.44;44.46;99432.91;5097218;28;20123;-68
2021/07/24 08:33:28;;;;;;;8.73;6.63;;;;;;;27.57;43.07;99428.44;5096534;28;20584;-68
2021/07/24 08:35:58;;;;;;;9.73;6.45;;;;;;;27.66;42.66;99438.25;5097162;28;20371;-73
2021/07/24 08:38:26;;;;;;;10.45;6.35;;;;;;;27.64;42.64;99443.59;5097031;28;20043;-73
2021/07/24 08:40:57;;;;;;;8.75;6.18;;;;;;;27.71;42.45;99436.97;5097019;28;20078;-73
2021/07/24 08:43:26;;;;;;;9.45;6.32;;;;;;;27.83;41.86;99436.00;5096871;28;20127;-67
2021/07/24 08:45:56;;;;;;;8.52;6.18;;;;;;;27.74;41.55;99436.72;5096955;28;20044;-69
2021/07/24 08:48:26;;;;;;;10.30;7.05;;;;;;;27.57;40.91;99439.75;5096982;28;20056;-69
2021/07/24 08:50:56;;;;;;;11.68;6.90;;;;;;;27.54;40.85;99437.38;5097237;28;20093;-70
2021/07/24 08:53:27;;;;;;;9.63;6.15;;;;;;;27.28;40.47;99434.00;5096851;28;20040;-70
2021/07/24 08:56:04;;;;;;;9.80;6.47;;;;;;;27.36;41.60;99440.47;5096900;28;20507;-69
2021/07/24 08:58:35;;;;;;;11.52;6.22;;;;;;;27.50;40.82;99433.28;5096549;28;20059;-69
2021/07/24 09:01:05;;;;;;;9.60;6.38;;;;;;;27.61;41.33;99430.72;5096790;28;20044;-70
2021/07/24 09:03:35;;;;;;;9.93;6.13;;;;;;;27.62;41.42;99432.38;5096924;28;20048;-71
2021/07/24 09:06:04;;;;;;;10.57;6.80;;;;;;;27.90;41.39;99424.13;5096635;28;20055;-71
2021/07/24 09:08:34;;;;;;;11.20;6.60;;;;;;;28.08;40.27;99421.91;5096548;28;20040;-70
2021/07/24 09:11:04;;;;;;;9.23;6.90;;;;;;;28.23;40.58;99418.09;5096447;28;20078;-71
2021/07/24 09:13:33;;;;;;;10.77;6.32;;;;;;;28.27;40.12;99423.94;5096504;28;20040;-69
2021/07/24 09:16:02;;;;;;;9.68;5.65;;;;;;;28.03;40.22;99410.06;5096460;28;20032;-69
2021/07/24 09:18:33;;;;;;;8.45;5.80;;;;;;;28.15;39.47;99415.22;5096594;28;20397;-68
2021/07/24 09:21:03;;;;;;;10.55;5.95;;;;;;;28.01;39.73;99406.72;5096398;28;20105;-71
2021/07/24 09:23:36;;;;;;;9.50;6.03;;;;;;;28.06;39.11;99418.56;5096324;28;20070;-68
2021/07/24 09:26:07;;;;;;;11.00;6.13;;;;;;;28.45;39.34;99410.22;5096119;28;20383;-71
2021/07/24 09:28:37;;;;;;;9.45;6.05;;;;;;;28.61;38.29;99412.50;5096231;28;20044;-70
2021/07/24 09:31:21;;;;;;;9.27;5.45;;;;;;;28.44;37.74;99411.19;5096266;28;20097;-71
2021/07/24 09:33:51;;;;;;;10.77;6.40;;;;;;;28.61;37.46;99411.66;5094511;28;20444;-72
2021/07/24 09:36:31;;;;;;;9.68;6.30;;;;;;;28.59;37.55;99411.75;5096312;28;20070;-72
2021/07/24 09:39:09;;;;;;;10.13;6.45;;;;;;;28.60;36.47;99410.00;5087518;28;20115;-70
2021/07/24 09:41:43;;;;;;;9.77;6.20;;;;;;;28.50;36.83;99409.88;5075859;28;20127;-69
2021/07/24 09:44:13;;;;;;;9.40;5.95;;;;;;;28.65;36.85;99413.94;5075661;28;20079;-71
2021/07/24 09:46:55;;;;;;;9.23;6.07;;;;;;;28.52;37.14;99402.69;5075824;28;20067;-69
2021/07/24 09:49:35;;;;;;;8.48;5.78;;;;;;;28.73;36.98;99402.81;5075767;28;20044;-70
2021/07/24 09:52:12;;;;;;;8.13;5.70;;;;;;;28.76;35.57;99400.78;5075653;28;20044;-69
2021/07/24 09:54:43;;;;;;;;;;;;;;;28.85;35.18;99402.69;5076136;28;20448;-72
2021/07/24 09:57:33;;;;;;;10.02;5.90;;;;;;;28.93;34.60;99408.16;5075601;28;19920;-71
2021/07/24 10:00:21;;;;;;;9.57;6.00;;;;;;;28.90;35.64;99407.56;5074041;28;20053;-70
2021/07/24 10:03:01;;;;;;;9.35;5.90;;;;;;;29.11;36.25;99414.53;5075810;28;20450;-71
2021/07/24 10:05:35;;;;;;;10.05;6.00;;;;;;;29.29;35.79;99403.53;5074126;28;20047;-70
2021/07/24 10:08:07;;;;;;;8.55;6.07;;;;;;;29.31;35.14;99401.59;5075786;28;20115;-70
2021/07/24 10:10:38;;;;;;;9.95;6.13;;;;;;;29.15;35.60;99402.00;5075338;28;20080;-71
2021/07/24 10:13:13;;;;;;;12.32;5.70;;;;;;;29.25;35.29;99394.22;5075287;28;20072;-69
2021/07/24 10:15:43;;;;;;;9.35;5.50;;;;;;;29.08;35.93;99419.25;5075257;28;20109;-70
2021/07/24 10:18:13;;;;;;;8.43;5.95;;;;;;;29.28;36.21;99401.84;5073905;28;20136;-70
2021/07/24 10:20:45;;;;;;;12.38;5.93;;;;;;;29.36;35.87;99399.44;5075461;28;20053;-70
2021/07/24 10:23:17;;;;;;;8.48;5.65;;;;;;;29.38;34.68;99410.66;5075190;28;20094;-70
2021/07/24 10:25:54;;;;;;;10.60;5.85;;;;;;;29.46;34.43;99410.88;5075339;28;20048;-71
2021/07/24 10:28:30;;;;;;;9.02;6.05;;;;;;;29.39;34.17;99405.28;5075284;28;20041;-70
2021/07/24 10:31:08;;;;;;;11.18;5.43;;;;;;;29.50;34.37;99417.53;5074889;28;20102;-70
2021/07/24 10:33:37;;;;;;;8.57;5.68;;;;;;;29.15;34.47;99413.34;5075822;28;20045;-69
2021/07/24 10:36:14;;;;;;;10.93;6.03;;;;;;;29.39;34.88;99409.72;5075056;28;20102;-69
2021/07/24 10:38:58;;;;;;;8.68;5.82;;;;;;;29.38;34.92;99397.50;5074990;28;20040;-70
2021/07/24 10:41:48;;;;;;;10.52;6.18;;;;;;;29.66;34.73;99388.97;5074694;28;20525;-71
2021/07/24 10:44:37;;;;;;;9.35;5.82;;;;;;;29.78;34.66;99388.81;5073895;28;20040;-71
2021/07/24 10:47:15;;;;;;;9.35;6.05;;;;;;;29.81;34.85;99391.19;5074955;28;20063;-69
2021/07/24 10:50:06;;;;;;;8.55;6.00;;;;;;;29.30;35.34;99395.50;5074601;28;20080;-70
2021/07/24 10:52:56;;;;;;;9.85;5.63;;;;;;;29.37;35.47;99385.34;5074832;28;20040;-72
2021/07/24 10:55:41;;;;;;;9.55;6.13;;;;;;;29.54;35.75;99375.06;5074484;28;20051;-70
2021/07/24 10:58:10;;;;;;;8.30;5.70;;;;;;;29.58;35.06;99378.28;5074368;28;20081;-70
2021/07/24 11:03:46;;;;;;;9.10;5.95;;;;;;;29.50;34.89;99380.69;5074327;28;20052;-69
2021/07/24 11:06:36;;;;;;;8.45;5.25;;;;;;;29.84;34.57;99383.06;5074301;28;20043;-69
2021/07/24 11:09:12;;;;;;;9.82;6.03;;;;;;;29.53;34.61;99380.47;5069978;28;20063;-69
2021/07/24 11:11:48;;;;;;;10.13;6.07;;;;;;;29.88;34.55;99375.72;5073177;28;20473;-70
2021/07/24 11:14:41;;;;;;;12.70;6.30;;;;;;;29.91;33.84;99372.84;5074394;28;20398;-70
2021/07/24 11:17:18;;;;;;;8.50;5.90;;;;;;;29.97;34.71;99369.66;5074427;28;20127;-70
2021/07/24 11:20:13;;;;;;;10.55;5.88;;;;;;;30.07;33.77;99359.16;5072848;28;20052;-72
2021/07/24 11:23:01;;;;;;;8.20;5.90;;;;;;;29.96;33.39;99348.75;5072647;28;20043;-71
2021/07/24 11:25:41;;;;;;;10.73;5.50;;;;;;;30.05;32.78;99366.38;5074755;28;20493;-70
2021/07/24 11:28:17;;;;;;;8.25;5.85;;;;;;;30.17;33.60;99355.63;5073890;28;20056;-71
2021/07/24 11:30:46;;;;;;;8.20;5.80;;;;;;;30.27;33.55;99356.50;5073914;28;20072;-70
2021/07/24 11:33:20;;;;;;;9.00;5.43;;;;;;;30.21;33.01;99346.47;5073876;28;20040;-72
2021/07/24 11:35:52;;;;;;;8.98;5.70;;;;;;;30.02;33.34;99349.03;5073754;28;20067;-72
2021/07/24 11:38:25;;;;;;;8.55;5.82;;;;;;;29.98;33.26;99355.53;5073713;28;20453;-69
2021/07/24 11:41:06;;;;;;;9.05;5.72;;;;;;;29.74;33.59;99365.50;5074380;28;20045;-68
2021/07/24 11:43:37;;;;;;;9.50;5.60;;;;;;;29.93;33.61;99357.72;5073706;28;20119;-70
2021/07/24 11:46:08;;;;;;;11.77;6.13;;;;;;;30.02;33.21;99359.56;5074257;28;20067;-70
2021/07/24 11:48:41;;;;;;;8.23;5.88;;;;;;;30.44;33.52;99342.72;5073737;28;20044;-71
2021/07/24 11:51:11;;;;;;;8.98;5.55;;;;;;;30.87;33.92;99338.91;5073660;28;20101;-70
2021/07/24 11:53:41;;;;;;;8.05;5.28;;;;;;;31.15;32.99;99343.38;5073514;28;20044;-70
2021/07/24 11:56:19;;;;;;;7.10;5.32;;;;;;;30.80;32.33;99345.69;5073678;28;20064;-68
2021/07/24 11:58:55;;;;;;;9.25;6.40;;;;;;;30.67;32.46;99343.31;5073309;28;20044;-71